createdAt,value
2022-10-26T00:01:33.787Z,6.45
2022-10-26T00:04:00.879Z,6.43
2022-10-26T00:06:28.930Z,6.47
2022-10-26T00:08:56.137Z,6.70
2022-10-26T00:11:23.221Z,6.10
2022-10-26T00:13:50.225Z,6.38
2022-10-26T00:16:21.730Z,6.97
2022-10-26T00:18:48.877Z,6.53
2022-10-26T00:21:15.923Z,6.32
2022-10-26T00:23:45.163Z,5.90
2022-10-26T00:26:12.232Z,5.28
2022-10-26T00:28:39.280Z,5.30
2022-10-26T00:31:07.348Z,5.13
2022-10-26T00:33:34.488Z,6.10
2022-10-26T00:36:01.519Z,5.88
2022-10-26T00:38:28.755Z,7.10
2022-10-26T00:40:55.835Z,6.25
2022-10-26T00:43:23.043Z,6.13
2022-10-26T00:45:50.346Z,5.85
2022-10-26T00:48:20.445Z,5.15
2022-10-26T00:50:47.503Z,5.68
2022-10-26T00:53:14.555Z,5.43
2022-10-26T00:55:42.844Z,5.20
2022-10-26T00:58:09.876Z,5.65
2022-10-26T01:00:37.226Z,5.75
2022-10-26T01:03:05.897Z,6.28
2022-10-26T01:05:33.032Z,6.47
2022-10-26T01:08:00.050Z,5.55
2022-10-26T01:10:27.083Z,6.95
2022-10-26T01:12:54.131Z,7.55
2022-10-26T01:15:21.875Z,9.07
2022-10-26T01:17:55.856Z,7.82
2022-10-26T01:20:41.628Z,7.57
2022-10-26T01:23:09.418Z,8.25
2022-10-26T01:25:39.671Z,8.30
2022-10-26T01:28:11.438Z,7.32
2022-10-26T01:30:41.767Z,8.18
2022-10-26T01:33:32.340Z,7.18
2022-10-26T01:38:28.196Z,7.20
2022-10-26T01:40:56.863Z,6.38
2022-10-26T01:43:24.128Z,6.60
2022-10-26T01:45:51.143Z,6.90
2022-10-26T01:48:18.560Z,6.82
2022-10-26T01:50:46.322Z,6.70
2022-10-26T01:53:14.547Z,6.75
2022-10-26T01:55:54.128Z,7.03
2022-10-26T01:58:40.020Z,5.72
2022-10-26T02:01:25.417Z,6.65
2022-10-26T02:03:56.292Z,6.38
2022-10-26T02:06:24.575Z,6.18
2022-10-26T02:08:55.716Z,6.15
2022-10-26T02:11:22.709Z,6.90
2022-10-26T02:14:06.722Z,5.88
2022-10-26T02:16:52.229Z,6.00
2022-10-26T02:19:28.215Z,6.53
2022-10-26T02:21:55.863Z,6.32
2022-10-26T02:24:23.357Z,6.00
2022-10-26T02:26:50.365Z,5.63
2022-10-26T02:29:19.069Z,5.80
2022-10-26T02:31:46.231Z,5.30
2022-10-26T02:34:13.904Z,6.15
2022-10-26T02:36:42.332Z,5.47
2022-10-26T02:39:11.514Z,5.30
2022-10-26T02:41:38.523Z,5.65
2022-10-26T02:44:19.423Z,5.40
2022-10-26T02:46:46.448Z,5.80
2022-10-26T02:49:13.468Z,5.53
2022-10-26T02:51:45.917Z,4.85
2022-10-26T02:54:15.256Z,4.57
2022-10-26T02:56:58.850Z,4.80
2022-10-26T02:59:26.491Z,4.88
2022-10-26T03:01:53.525Z,5.07
2022-10-26T03:04:20.605Z,4.53
2022-10-26T03:06:54.219Z,5.25
2022-10-26T03:09:23.526Z,4.32
2022-10-26T03:11:52.544Z,4.60
2022-10-26T03:14:19.576Z,4.63
2022-10-26T03:16:46.686Z,5.88
2022-10-26T03:19:13.773Z,5.13
2022-10-26T03:21:42.293Z,6.05
2022-10-26T03:24:09.670Z,5.93
2022-10-26T03:26:36.733Z,5.93
2022-10-26T03:29:03.818Z,5.78
2022-10-26T03:31:30.858Z,5.45
2022-10-26T03:33:57.885Z,5.55
2022-10-26T03:36:25.031Z,5.10
2022-10-26T03:38:52.043Z,5.22
2022-10-26T03:41:19.068Z,5.28
2022-10-26T03:43:46.155Z,5.40
2022-10-26T03:46:13.180Z,4.80
2022-10-26T03:48:40.179Z,5.15
2022-10-26T03:51:07.239Z,4.57
2022-10-26T03:53:34.297Z,4.70
2022-10-26T03:56:01.316Z,4.72
2022-10-26T03:58:28.403Z,4.80
2022-10-26T04:00:55.455Z,4.78
2022-10-26T04:03:22.550Z,5.05
2022-10-26T04:05:49.568Z,5.40
2022-10-26T04:08:16.640Z,4.55
2022-10-26T04:10:43.687Z,4.22
2022-10-26T04:13:11.601Z,5.75
2022-10-26T04:15:38.652Z,5.15
2022-10-26T04:18:05.736Z,5.20
2022-10-26T04:20:34.277Z,5.38
2022-10-26T04:23:01.869Z,5.45
2022-10-26T04:25:31.835Z,4.90
2022-10-26T04:28:00.584Z,4.80
2022-10-26T04:30:27.614Z,5.47
2022-10-26T04:32:54.666Z,6.38
2022-10-26T04:35:21.680Z,6.40
2022-10-26T04:37:48.735Z,6.55
2022-10-26T04:40:15.792Z,7.00
2022-10-26T04:42:46.252Z,5.80
2022-10-26T04:45:14.128Z,5.75
2022-10-26T04:47:41.459Z,6.22
2022-10-26T04:50:08.651Z,7.28
2022-10-26T04:52:35.955Z,6.15
2022-10-26T04:55:05.924Z,7.78
2022-10-26T04:57:33.373Z,6.30
2022-10-26T05:00:00.778Z,6.20
2022-10-26T05:02:28.631Z,6.95
2022-10-26T05:04:55.902Z,6.35
2022-10-26T05:07:22.933Z,5.90
2022-10-26T05:09:49.947Z,6.15
2022-10-26T05:12:17.006Z,6.45
2022-10-26T05:14:44.040Z,5.60
2022-10-26T05:17:11.073Z,6.47
2022-10-26T05:19:38.168Z,6.60
2022-10-26T05:22:05.243Z,5.93
2022-10-26T05:24:32.296Z,6.20
2022-10-26T05:26:59.294Z,5.45
2022-10-26T05:29:26.374Z,7.15
2022-10-26T05:31:53.415Z,6.53
2022-10-26T05:34:20.431Z,6.57
2022-10-26T05:36:47.511Z,6.35
2022-10-26T05:39:14.572Z,5.88
2022-10-26T05:41:41.579Z,6.40
2022-10-26T05:44:08.588Z,6.82
2022-10-26T05:46:35.700Z,7.00
2022-10-26T05:49:02.809Z,7.68
2022-10-26T05:51:29.857Z,6.78
2022-10-26T05:53:57.544Z,6.85
2022-10-26T05:56:37.412Z,7.97
2022-10-26T05:59:04.986Z,7.03
2022-10-26T06:01:50.763Z,6.70
2022-10-26T06:04:50.683Z,6.70
2022-10-26T06:07:19.293Z,7.50
2022-10-26T06:09:46.654Z,7.15
2022-10-26T06:12:16.816Z,7.43
2022-10-26T06:14:46.611Z,6.95
2022-10-26T06:17:32.659Z,7.85
2022-10-26T06:20:09.030Z,7.72
2022-10-26T06:22:52.462Z,7.63
2022-10-26T06:25:38.369Z,7.65
2022-10-26T06:28:18.947Z,7.20
2022-10-26T06:33:24.757Z,7.05
2022-10-26T06:35:59.499Z,6.60
2022-10-26T06:38:27.372Z,5.82
2022-10-26T06:40:55.875Z,6.20
2022-10-26T06:43:26.018Z,5.45
2022-10-26T06:45:55.610Z,5.95
2022-10-26T06:48:23.351Z,6.15
2022-10-26T06:50:51.230Z,6.07
2022-10-26T06:53:25.755Z,5.63
2022-10-26T06:55:52.911Z,5.65
2022-10-26T06:58:23.961Z,6.10
2022-10-26T07:00:51.799Z,6.05
2022-10-26T07:03:18.832Z,5.88
2022-10-26T07:05:45.985Z,5.70
2022-10-26T07:08:13.086Z,5.80
2022-10-26T07:10:40.184Z,5.57
2022-10-26T07:13:07.258Z,4.70
2022-10-26T07:15:34.689Z,5.22
2022-10-26T07:18:03.127Z,4.88
2022-10-26T07:20:30.152Z,5.13
2022-10-26T07:22:57.208Z,5.07
2022-10-26T07:25:24.513Z,5.20
2022-10-26T07:27:51.816Z,5.22
2022-10-26T07:30:19.011Z,5.63
2022-10-26T07:32:46.328Z,6.05
2022-10-26T07:35:13.549Z,5.53
2022-10-26T07:37:40.589Z,5.10
2022-10-26T07:40:08.077Z,4.82
2022-10-26T07:42:37.031Z,5.15
2022-10-26T07:45:04.750Z,5.03
2022-10-26T07:47:31.800Z,4.13
2022-10-26T07:49:58.828Z,4.57
2022-10-26T07:52:25.888Z,4.32
2022-10-26T07:54:52.968Z,3.67
2022-10-26T07:57:20.083Z,3.33
2022-10-26T07:59:47.188Z,3.22
2022-10-26T08:02:14.335Z,4.88
2022-10-26T08:04:41.395Z,4.60
2022-10-26T08:07:08.424Z,4.60
2022-10-26T08:09:35.488Z,5.07
2022-10-26T08:12:02.539Z,4.35
2022-10-26T08:14:29.566Z,4.15
2022-10-26T08:16:56.563Z,3.85
2022-10-26T08:19:23.613Z,4.00
2022-10-26T08:21:50.618Z,4.20
2022-10-26T08:24:17.663Z,4.00
2022-10-26T08:26:44.687Z,3.42
2022-10-26T08:29:11.744Z,3.60
2022-10-26T08:31:38.747Z,3.90
2022-10-26T08:34:05.775Z,3.40
2022-10-26T08:36:32.829Z,4.50
2022-10-26T08:41:36.925Z,4.07
2022-10-26T08:44:27.319Z,3.45
2022-10-26T08:46:56.063Z,3.28
2022-10-26T08:49:26.908Z,2.85
2022-10-26T08:51:55.599Z,2.63
2022-10-26T08:54:29.415Z,2.35
2022-10-26T08:56:57.916Z,2.30
2022-10-26T08:59:28.598Z,2.40
2022-10-26T09:01:55.660Z,2.10
2022-10-26T09:04:32.154Z,2.10
2022-10-26T09:07:10.740Z,2.17
2022-10-26T09:09:40.836Z,2.05
2022-10-26T09:12:22.887Z,1.80
2022-10-26T09:14:59.974Z,2.00
2022-10-26T09:17:27.017Z,1.90
2022-10-26T09:20:03.274Z,2.53
2022-10-26T09:22:34.633Z,2.40
2022-10-26T09:25:06.914Z,2.63
2022-10-26T09:27:35.715Z,2.58
2022-10-26T09:30:05.132Z,2.33
2022-10-26T09:32:35.866Z,3.37
2022-10-26T09:35:04.128Z,2.67
2022-10-26T09:37:32.811Z,2.60
2022-10-26T09:39:59.798Z,2.78
2022-10-26T09:42:29.107Z,3.10
2022-10-26T09:44:57.679Z,2.90
2022-10-26T09:47:28.065Z,3.15
2022-10-26T09:52:22.061Z,3.13
2022-10-26T09:54:49.086Z,3.40
2022-10-26T09:57:16.611Z,3.40
2022-10-26T09:59:43.671Z,3.75
2022-10-26T10:02:31.020Z,4.07
2022-10-26T10:04:58.070Z,3.90
2022-10-26T10:07:25.074Z,3.70
2022-10-26T10:10:06.617Z,3.28
2022-10-26T10:12:33.648Z,3.35
2022-10-26T10:15:00.721Z,3.33
2022-10-26T10:17:27.761Z,3.20
2022-10-26T10:19:54.839Z,3.63
2022-10-26T10:22:22.349Z,3.55
2022-10-26T10:25:02.107Z,2.85
2022-10-26T10:27:29.495Z,2.78
2022-10-26T10:29:59.971Z,3.22
2022-10-26T10:32:35.337Z,3.05
2022-10-26T10:35:06.539Z,3.15
2022-10-26T10:37:35.356Z,3.42
2022-10-26T10:40:02.895Z,3.30
2022-10-26T10:42:36.694Z,3.55
2022-10-26T10:45:03.775Z,3.40
2022-10-26T10:47:34.842Z,4.10
2022-10-26T10:50:08.706Z,3.40
2022-10-26T10:52:36.090Z,3.30
2022-10-26T10:55:12.364Z,3.60
2022-10-26T10:57:42.176Z,3.70
2022-10-26T11:00:12.125Z,3.85
2022-10-26T11:02:39.239Z,3.30
2022-10-26T11:05:20.957Z,3.63
2022-10-26T11:08:12.114Z,3.67
2022-10-26T11:10:40.208Z,3.47
2022-10-26T11:13:08.394Z,3.78
2022-10-26T11:15:35.574Z,4.10
2022-10-26T11:18:07.563Z,3.30
2022-10-26T11:20:36.046Z,3.97
2022-10-26T11:23:09.570Z,4.15
2022-10-26T11:25:38.135Z,4.28
2022-10-26T11:28:06.331Z,3.65
2022-10-26T11:30:34.395Z,4.13
2022-10-26T11:33:02.451Z,4.35
2022-10-26T11:35:38.599Z,3.55
2022-10-26T11:38:09.156Z,4.10
2022-10-26T11:40:44.981Z,3.83
2022-10-26T11:43:16.046Z,4.00
2022-10-26T11:45:43.825Z,4.13
2022-10-26T11:48:13.877Z,4.07
2022-10-26T11:50:42.459Z,3.65
2022-10-26T11:53:13.676Z,3.38
2022-10-26T11:55:40.733Z,3.45
2022-10-26T11:58:09.123Z,2.78
2022-10-26T12:00:36.149Z,3.50
2022-10-26T12:03:04.744Z,3.28
2022-10-26T12:05:41.044Z,3.35
2022-10-26T12:08:17.878Z,3.13
2022-10-26T12:10:47.519Z,2.70
2022-10-26T12:13:23.591Z,2.88
2022-10-26T12:16:05.961Z,2.72
2022-10-26T12:19:00.005Z,2.78
2022-10-26T12:21:30.779Z,2.33
2022-10-26T12:24:24.197Z,2.80
2022-10-26T12:26:52.177Z,2.45
2022-10-26T12:29:28.403Z,3.03
2022-10-26T12:31:55.600Z,3.00
2022-10-26T12:34:25.694Z,2.90
2022-10-26T12:39:29.482Z,2.42
2022-10-26T12:42:00.146Z,2.30
2022-10-26T12:44:36.319Z,3.03
2022-10-26T12:47:03.625Z,3.00
2022-10-26T12:49:49.547Z,2.28
2022-10-26T12:52:24.023Z,2.90
2022-10-26T12:54:56.655Z,2.50
2022-10-26T12:57:29.400Z,2.70
2022-10-26T13:00:06.145Z,2.42
2022-10-26T13:02:44.140Z,2.70
2022-10-26T13:05:20.409Z,2.65
2022-10-26T13:07:47.484Z,2.35
2022-10-26T13:10:14.563Z,2.33
2022-10-26T13:12:52.783Z,2.60
2022-10-26T13:15:39.792Z,2.30
2022-10-26T13:18:06.837Z,2.33
2022-10-26T13:20:34.840Z,2.47
2022-10-26T13:25:29.945Z,2.60
2022-10-26T13:28:07.157Z,2.50
2022-10-26T13:30:34.139Z,2.70
2022-10-26T13:33:01.548Z,2.80
2022-10-26T13:35:28.514Z,3.00
2022-10-26T13:37:55.864Z,2.78
2022-10-26T13:40:26.771Z,2.80
2022-10-26T13:43:03.112Z,3.05
2022-10-26T13:45:30.785Z,3.00
2022-10-26T13:48:00.912Z,2.60
2022-10-26T13:52:58.866Z,3.05
2022-10-26T13:55:28.927Z,2.70
2022-10-26T14:00:23.274Z,2.58
2022-10-26T14:02:50.507Z,2.35
2022-10-26T14:05:18.124Z,2.05
2022-10-26T14:07:55.626Z,2.10
2022-10-26T14:10:28.367Z,2.33
2022-10-26T14:12:55.479Z,2.28
2022-10-26T14:15:26.642Z,2.30
2022-10-26T14:17:54.217Z,2.30
2022-10-26T14:20:21.773Z,1.85
2022-10-26T14:22:48.805Z,1.90
2022-10-26T14:25:35.937Z,3.85
2022-10-26T14:28:30.453Z,2.58
2022-10-26T14:31:16.511Z,2.10
2022-10-26T14:33:46.566Z,2.42
2022-10-26T14:36:13.879Z,2.78
2022-10-26T14:38:43.816Z,2.10
2022-10-26T14:41:11.246Z,3.00
2022-10-26T14:43:38.309Z,2.30
2022-10-26T14:46:05.575Z,2.05
2022-10-26T14:48:33.381Z,2.28
2022-10-26T14:51:10.781Z,2.10
2022-10-26T14:53:41.388Z,1.70
2022-10-26T14:56:25.097Z,2.70
2022-10-26T14:58:52.283Z,2.25
2022-10-26T15:01:22.547Z,2.05
2022-10-26T15:03:58.040Z,2.30
2022-10-26T15:06:31.856Z,2.22
2022-10-26T15:08:59.984Z,3.35
2022-10-26T15:11:27.185Z,4.78
2022-10-26T15:13:54.176Z,2.65
2022-10-26T15:16:22.082Z,2.25
2022-10-26T15:18:51.232Z,2.22
2022-10-26T15:21:50.935Z,2.22
2022-10-26T15:24:20.890Z,2.60
2022-10-26T15:26:47.868Z,2.35
2022-10-26T15:29:33.824Z,2.80
2022-10-26T15:34:32.234Z,2.35
2022-10-26T15:36:59.238Z,2.45
2022-10-26T15:39:27.161Z,2.50
2022-10-26T15:41:54.314Z,2.60
2022-10-26T15:44:22.204Z,2.47
2022-10-26T15:46:49.192Z,2.50
2022-10-26T15:49:17.248Z,2.50
2022-10-26T15:51:45.183Z,2.63
2022-10-26T15:54:12.166Z,2.42
2022-10-26T15:56:39.720Z,2.65
2022-10-26T15:59:11.169Z,2.60
2022-10-26T16:01:38.223Z,2.75
2022-10-26T16:04:05.342Z,2.88
2022-10-26T16:06:32.936Z,2.60
2022-10-26T16:09:01.602Z,2.97
2022-10-26T16:11:29.013Z,2.50
2022-10-26T16:13:58.326Z,2.78
2022-10-26T16:16:28.313Z,3.05
2022-10-26T16:19:11.962Z,3.05
2022-10-26T16:21:42.919Z,2.97
2022-10-26T16:24:10.692Z,2.58
2022-10-26T16:26:37.282Z,2.70
2022-10-26T16:29:03.851Z,2.80
2022-10-26T16:31:30.505Z,3.47
2022-10-26T16:34:00.271Z,3.40
2022-10-26T16:36:29.801Z,3.10
2022-10-26T16:38:56.483Z,2.88
2022-10-26T16:41:23.101Z,2.50
2022-10-26T16:43:49.706Z,3.03
2022-10-26T16:46:17.837Z,2.95
2022-10-26T16:48:45.127Z,3.55
2022-10-26T16:51:13.467Z,3.70
2022-10-26T16:53:40.237Z,3.80
2022-10-26T16:56:11.649Z,3.75
2022-10-26T16:58:38.545Z,3.58
2022-10-26T17:01:05.886Z,9.70
2022-10-26T17:03:32.549Z,13.15
2022-10-26T17:06:02.806Z,5.05
2022-10-26T17:08:29.674Z,3.65
2022-10-26T17:11:01.496Z,3.58
2022-10-26T17:13:28.072Z,3.97
2022-10-26T17:15:54.668Z,3.92
2022-10-26T17:18:21.243Z,3.97
2022-10-26T17:20:51.091Z,3.80
2022-10-26T17:23:17.661Z,7.30
2022-10-26T17:25:44.724Z,5.80
2022-10-26T17:28:12.161Z,6.28
2022-10-26T17:30:39.230Z,5.30
2022-10-26T17:33:05.887Z,4.43
2022-10-26T17:35:33.573Z,4.72
2022-10-26T17:38:00.163Z,5.32
2022-10-26T17:40:26.797Z,5.03
2022-10-26T17:42:53.406Z,5.47
2022-10-26T17:45:20.410Z,5.75
2022-10-26T17:47:47.375Z,5.47
2022-10-26T17:50:14.408Z,6.75
2022-10-26T17:52:41.395Z,9.27
2022-10-26T17:55:08.560Z,10.18
2022-10-26T17:57:35.547Z,9.95
2022-10-26T18:00:03.804Z,12.65
2022-10-26T18:02:30.955Z,15.82
2022-10-26T18:04:58.073Z,12.68
2022-10-26T18:07:25.102Z,16.83
2022-10-26T18:09:52.115Z,18.00
2022-10-26T18:12:19.134Z,16.63
2022-10-26T18:14:46.193Z,14.45
2022-10-26T18:17:13.185Z,12.13
2022-10-26T18:19:40.160Z,9.73
2022-10-26T18:22:07.164Z,8.57
2022-10-26T18:24:34.261Z,9.40
2022-10-26T18:27:01.254Z,12.43
2022-10-26T18:29:28.643Z,11.70
2022-10-26T18:31:56.757Z,15.07
2022-10-26T18:34:23.802Z,25.13
2022-10-26T18:36:50.854Z,24.83
2022-10-26T18:39:17.839Z,19.35
2022-10-26T18:41:44.892Z,15.90
2022-10-26T18:44:11.988Z,13.68
2022-10-26T18:46:45.365Z,11.75
2022-10-26T18:49:14.000Z,13.77
2022-10-26T18:51:41.101Z,15.40
2022-10-26T18:54:08.135Z,16.40
2022-10-26T18:56:35.161Z,16.10
2022-10-26T18:59:02.253Z,17.85
2022-10-26T19:01:30.274Z,17.02
2022-10-26T19:03:58.361Z,17.05
2022-10-26T19:06:26.144Z,16.80
2022-10-26T19:08:53.234Z,16.38
2022-10-26T19:11:20.712Z,16.25
2022-10-26T19:13:50.058Z,16.08
2022-10-26T19:16:40.349Z,15.55
2022-10-26T19:19:08.811Z,14.30
2022-10-26T19:21:35.891Z,13.48
2022-10-26T19:24:02.910Z,12.85
2022-10-26T19:26:33.346Z,12.52
2022-10-26T19:29:02.373Z,11.98
2022-10-26T19:31:32.249Z,15.27
2022-10-26T19:33:59.907Z,16.63
2022-10-26T19:36:27.379Z,17.77
2022-10-26T19:38:54.678Z,16.73
2022-10-26T19:41:26.456Z,14.50
2022-10-26T19:43:53.874Z,15.20
2022-10-26T19:46:21.551Z,12.95
2022-10-26T19:48:48.986Z,13.23
2022-10-26T19:51:15.992Z,14.80
2022-10-26T19:53:43.056Z,14.52
2022-10-26T19:56:12.253Z,13.85
2022-10-26T19:58:39.436Z,13.00
2022-10-26T20:01:06.838Z,13.68
2022-10-26T20:03:33.992Z,15.02
2022-10-26T20:06:01.397Z,14.85
2022-10-26T20:08:28.580Z,18.17
2022-10-26T20:10:56.652Z,14.48
2022-10-26T20:13:23.927Z,14.70
2022-10-26T20:15:51.110Z,16.38
2022-10-26T20:18:18.237Z,14.95
2022-10-26T20:20:45.206Z,14.93
2022-10-26T20:23:16.795Z,15.93
2022-10-26T20:25:47.510Z,15.95
2022-10-26T20:28:14.634Z,19.65
2022-10-26T20:30:42.275Z,19.23
2022-10-26T20:33:09.592Z,21.20
2022-10-26T20:35:36.741Z,21.17
2022-10-26T20:38:10.685Z,24.83
2022-10-26T20:40:40.893Z,23.38
2022-10-26T20:43:09.657Z,25.73
2022-10-26T20:45:36.870Z,25.73
2022-10-26T20:48:04.049Z,24.38
2022-10-26T20:50:31.381Z,24.55
2022-10-26T20:53:01.081Z,24.33
2022-10-26T20:55:28.957Z,26.47
2022-10-26T20:57:57.298Z,22.35
2022-10-26T21:01:15.252Z,21.13
2022-10-26T21:03:59.315Z,21.05
2022-10-26T21:06:29.517Z,20.15
2022-10-26T21:09:07.508Z,19.08
2022-10-26T21:11:35.434Z,19.75
2022-10-26T21:14:05.156Z,19.30
2022-10-26T21:16:32.521Z,20.23
2022-10-26T21:19:00.692Z,21.90
2022-10-26T21:21:28.015Z,25.02
2022-10-26T21:23:58.499Z,22.35
2022-10-26T21:28:52.918Z,24.80
2022-10-26T21:31:22.516Z,20.73
2022-10-26T21:33:49.562Z,23.73
2022-10-26T21:36:16.616Z,21.63
2022-10-26T21:38:44.349Z,20.70
2022-10-26T21:41:12.516Z,19.65
2022-10-26T21:43:40.232Z,19.17
2022-10-26T21:46:07.348Z,18.65
2022-10-26T21:48:34.459Z,18.85
2022-10-26T21:51:02.124Z,19.65
2022-10-26T21:53:29.169Z,19.67
2022-10-26T21:56:00.425Z,20.60
2022-10-26T21:58:27.480Z,18.80
2022-10-26T22:00:54.537Z,21.13
2022-10-26T22:03:21.610Z,21.10
2022-10-26T22:05:52.283Z,17.83
2022-10-26T22:08:19.641Z,16.80
2022-10-26T22:10:46.658Z,16.13
2022-10-26T22:13:13.660Z,24.63
2022-10-26T22:15:40.687Z,24.90
2022-10-26T22:18:07.662Z,20.38
2022-10-26T22:20:34.884Z,15.93
2022-10-26T22:23:12.302Z,11.25
2022-10-26T22:25:48.171Z,10.82
2022-10-26T22:28:16.575Z,13.32
2022-10-26T22:30:43.562Z,14.15
2022-10-26T22:33:10.582Z,13.30
2022-10-26T22:35:40.203Z,10.95
2022-10-26T22:38:07.246Z,10.38
2022-10-26T22:40:34.261Z,22.13
2022-10-26T22:43:01.323Z,12.75
2022-10-26T22:45:28.407Z,14.32
2022-10-26T22:47:55.504Z,11.98
2022-10-26T22:50:22.574Z,11.88
2022-10-26T22:52:49.893Z,13.07
2022-10-26T22:55:17.198Z,12.45
2022-10-26T22:57:44.164Z,11.38
2022-10-26T23:00:11.511Z,10.98
2022-10-26T23:02:38.485Z,10.77
2022-10-26T23:05:05.705Z,12.18
2022-10-26T23:07:32.700Z,12.25
2022-10-26T23:09:59.698Z,16.80
2022-10-26T23:12:26.681Z,17.27
2022-10-26T23:14:53.665Z,18.30
2022-10-26T23:17:20.677Z,18.48
2022-10-26T23:19:47.689Z,16.52
2022-10-26T23:22:14.665Z,19.73
2022-10-26T23:24:41.681Z,18.95
2022-10-26T23:27:08.663Z,18.25
2022-10-26T23:29:35.691Z,18.00
2022-10-26T23:32:02.723Z,16.58
2022-10-26T23:34:29.715Z,15.43
2022-10-26T23:36:56.723Z,16.27
2022-10-26T23:39:23.746Z,16.33
2022-10-26T23:41:50.737Z,15.32
2022-10-26T23:44:17.766Z,14.77
2022-10-26T23:46:44.806Z,15.57
2022-10-26T23:49:11.842Z,15.95
2022-10-26T23:51:38.830Z,15.43
2022-10-26T23:54:05.875Z,13.93
2022-10-26T23:56:32.871Z,16.13
2022-10-26T23:59:05.339Z,15.05
